Rio Verde de Mato Grosso, Brazil
Current Conditions -  °F | °C
As of 1:00 PM on Wednesday 22 Oct 2014 (Local Time) from SBCG Reporting Station
Clear Clear  
Wind Chill: 84°   Ceiling: Unl
Heat Index: 84°   Visibility: 6mi
Dew Point: 61°   Wind: 12mph
Humidity: 45%   Direction: 110°ESE
Pressure: 30"   Gusts: NA
Location:  18.92°S, 54.84°W
Report Text: SBCG 221600Z 11010KT CAVOK 29/16 Q1016
Loading
Personal Weather Stations






























Interactive Weather Map
Tropical Storm Tracking
New forecast layout! Learn more

10-Day Weather Forecast

Advertisements
Track Severe Weather on mobile